sensor_id;sensor_type;location;lat;lon;timestamp;P1;durP1;ratioP1;P2;durP2;ratioP2
4642;SDS011;2334;48.710;9.622;2023-03-05T00:01:04;42.67;;;15.27;;
4642;SDS011;2334;48.710;9.622;2023-03-05T00:03:31;43.70;;;15.30;;
4642;SDS011;2334;48.710;9.622;2023-03-05T00:06:00;33.30;;;13.33;;
4642;SDS011;2334;48.710;9.622;2023-03-05T00:08:27;34.93;;;14.70;;
4642;SDS011;2334;48.710;9.622;2023-03-05T00:10:55;36.77;;;13.43;;
4642;SDS011;2334;48.710;9.622;2023-03-05T00:13:22;44.30;;;15.10;;
4642;SDS011;2334;48.710;9.622;2023-03-05T00:15:49;31.87;;;14.47;;
4642;SDS011;2334;48.710;9.622;2023-03-05T00:18:16;41.33;;;13.67;;
4642;SDS011;2334;48.710;9.622;2023-03-05T00:20:44;41.77;;;13.97;;
4642;SDS011;2334;48.710;9.622;2023-03-05T00:23:13;37.20;;;14.83;;
4642;SDS011;2334;48.710;9.622;2023-03-05T00:25:40;34.83;;;12.63;;
4642;SDS011;2334;48.710;9.622;2023-03-05T00:28:07;33.53;;;12.57;;
4642;SDS011;2334;48.710;9.622;2023-03-05T00:30:35;33.33;;;14.27;;
4642;SDS011;2334;48.710;9.622;2023-03-05T00:33:02;38.30;;;13.27;;
4642;SDS011;2334;48.710;9.622;2023-03-05T00:35:29;35.10;;;12.70;;
4642;SDS011;2334;48.710;9.622;2023-03-05T00:37:56;44.57;;;14.60;;
4642;SDS011;2334;48.710;9.622;2023-03-05T00:40:24;58.73;;;15.00;;
4642;SDS011;2334;48.710;9.622;2023-03-05T00:42:51;38.23;;;14.43;;
4642;SDS011;2334;48.710;9.622;2023-03-05T00:45:18;43.00;;;14.47;;
4642;SDS011;2334;48.710;9.622;2023-03-05T00:47:45;32.20;;;13.73;;
4642;SDS011;2334;48.710;9.622;2023-03-05T00:50:12;32.37;;;13.13;;
4642;SDS011;2334;48.710;9.622;2023-03-05T00:52:38;45.13;;;15.00;;
4642;SDS011;2334;48.710;9.622;2023-03-05T00:55:05;39.10;;;13.47;;
4642;SDS011;2334;48.710;9.622;2023-03-05T00:57:34;37.53;;;14.10;;
4642;SDS011;2334;48.710;9.622;2023-03-05T01:00:02;43.40;;;15.40;;
4642;SDS011;2334;48.710;9.622;2023-03-05T01:02:30;42.50;;;17.00;;
4642;SDS011;2334;48.710;9.622;2023-03-05T01:04:57;51.73;;;15.90;;
4642;SDS011;2334;48.710;9.622;2023-03-05T01:07:24;42.50;;;15.87;;
4642;SDS011;2334;48.710;9.622;2023-03-05T01:09:51;35.53;;;14.80;;
4642;SDS011;2334;48.710;9.622;2023-03-05T01:12:17;37.10;;;13.70;;
4642;SDS011;2334;48.710;9.622;2023-03-05T01:14:46;41.07;;;14.30;;
4642;SDS011;2334;48.710;9.622;2023-03-05T01:17:12;36.23;;;15.30;;
4642;SDS011;2334;48.710;9.622;2023-03-05T01:19:39;40.90;;;15.40;;
4642;SDS011;2334;48.710;9.622;2023-03-05T01:22:06;38.63;;;13.77;;
4642;SDS011;2334;48.710;9.622;2023-03-05T01:24:33;33.63;;;13.07;;
4642;SDS011;2334;48.710;9.622;2023-03-05T01:27:00;38.83;;;14.10;;
4642;SDS011;2334;48.710;9.622;2023-03-05T01:29:27;40.47;;;14.77;;
4642;SDS011;2334;48.710;9.622;2023-03-05T01:31:55;45.70;;;15.10;;
4642;SDS011;2334;48.710;9.622;2023-03-05T01:34:22;43.77;;;14.80;;
4642;SDS011;2334;48.710;9.622;2023-03-05T01:36:49;47.57;;;14.87;;
4642;SDS011;2334;48.710;9.622;2023-03-05T01:39:16;38.20;;;14.37;;
4642;SDS011;2334;48.710;9.622;2023-03-05T01:41:42;39.90;;;14.50;;
4642;SDS011;2334;48.710;9.622;2023-03-05T01:44:16;33.37;;;12.03;;
4642;SDS011;2334;48.710;9.622;2023-03-05T01:46:48;28.73;;;12.90;;
4642;SDS011;2334;48.710;9.622;2023-03-05T01:49:20;40.63;;;14.57;;
4642;SDS011;2334;48.710;9.622;2023-03-05T01:52:01;39.53;;;14.17;;
4642;SDS011;2334;48.710;9.622;2023-03-05T01:54:31;33.67;;;13.50;;
4642;SDS011;2334;48.710;9.622;2023-03-05T01:57:01;36.50;;;13.67;;
4642;SDS011;2334;48.710;9.622;2023-03-05T01:59:33;38.60;;;15.87;;
4642;SDS011;2334;48.710;9.622;2023-03-05T02:02:01;30.53;;;13.50;;
4642;SDS011;2334;48.710;9.622;2023-03-05T02:04:33;37.27;;;14.50;;
4642;SDS011;2334;48.710;9.622;2023-03-05T02:07:06;42.10;;;15.17;;
4642;SDS011;2334;48.710;9.622;2023-03-05T02:09:36;42.50;;;16.23;;
4642;SDS011;2334;48.710;9.622;2023-03-05T02:12:04;38.60;;;13.43;;
4642;SDS011;2334;48.710;9.622;2023-03-05T02:14:31;34.13;;;13.80;;
4642;SDS011;2334;48.710;9.622;2023-03-05T02:16:58;45.43;;;14.70;;
4642;SDS011;2334;48.710;9.622;2023-03-05T02:19:25;34.07;;;13.13;;
4642;SDS011;2334;48.710;9.622;2023-03-05T02:21:54;40.30;;;14.73;;
4642;SDS011;2334;48.710;9.622;2023-03-05T02:24:32;36.53;;;13.27;;
4642;SDS011;2334;48.710;9.622;2023-03-05T02:27:00;44.43;;;14.90;;
4642;SDS011;2334;48.710;9.622;2023-03-05T02:29:29;41.17;;;13.37;;
4642;SDS011;2334;48.710;9.622;2023-03-05T02:31:57;41.40;;;15.73;;
4642;SDS011;2334;48.710;9.622;2023-03-05T02:34:25;30.10;;;12.80;;
4642;SDS011;2334;48.710;9.622;2023-03-05T02:36:53;32.23;;;12.90;;
4642;SDS011;2334;48.710;9.622;2023-03-05T02:39:20;39.33;;;14.40;;
4642;SDS011;2334;48.710;9.622;2023-03-05T02:41:47;40.30;;;14.97;;
4642;SDS011;2334;48.710;9.622;2023-03-05T02:44:14;36.40;;;14.60;;
4642;SDS011;2334;48.710;9.622;2023-03-05T02:46:41;34.17;;;13.23;;
4642;SDS011;2334;48.710;9.622;2023-03-05T02:49:08;37.20;;;13.47;;
4642;SDS011;2334;48.710;9.622;2023-03-05T02:51:35;28.23;;;12.83;;
4642;SDS011;2334;48.710;9.622;2023-03-05T02:54:03;33.13;;;13.40;;
4642;SDS011;2334;48.710;9.622;2023-03-05T02:56:30;37.80;;;14.33;;
4642;SDS011;2334;48.710;9.622;2023-03-05T02:58:57;37.10;;;15.00;;
4642;SDS011;2334;48.710;9.622;2023-03-05T03:01:24;26.17;;;13.27;;
4642;SDS011;2334;48.710;9.622;2023-03-05T03:03:52;41.00;;;13.53;;
4642;SDS011;2334;48.710;9.622;2023-03-05T03:06:19;36.73;;;13.57;;
4642;SDS011;2334;48.710;9.622;2023-03-05T03:08:46;35.47;;;13.80;;
4642;SDS011;2334;48.710;9.622;2023-03-05T03:11:14;34.37;;;13.53;;
4642;SDS011;2334;48.710;9.622;2023-03-05T03:13:41;31.37;;;12.67;;
4642;SDS011;2334;48.710;9.622;2023-03-05T03:16:09;46.47;;;15.70;;
4642;SDS011;2334;48.710;9.622;2023-03-05T03:18:37;35.47;;;12.90;;
4642;SDS011;2334;48.710;9.622;2023-03-05T03:21:04;39.10;;;14.70;;
4642;SDS011;2334;48.710;9.622;2023-03-05T03:23:32;41.80;;;14.83;;
4642;SDS011;2334;48.710;9.622;2023-03-05T03:25:59;40.70;;;16.67;;
4642;SDS011;2334;48.710;9.622;2023-03-05T03:28:28;36.30;;;13.30;;
4642;SDS011;2334;48.710;9.622;2023-03-05T03:30:54;39.53;;;15.40;;
4642;SDS011;2334;48.710;9.622;2023-03-05T03:33:21;45.83;;;14.17;;
4642;SDS011;2334;48.710;9.622;2023-03-05T03:35:48;40.10;;;13.17;;
4642;SDS011;2334;48.710;9.622;2023-03-05T03:38:15;33.20;;;12.60;;
4642;SDS011;2334;48.710;9.622;2023-03-05T03:40:42;42.20;;;14.53;;
4642;SDS011;2334;48.710;9.622;2023-03-05T03:43:09;36.67;;;13.83;;
4642;SDS011;2334;48.710;9.622;2023-03-05T03:45:40;38.00;;;14.80;;
4642;SDS011;2334;48.710;9.622;2023-03-05T03:48:07;38.10;;;15.53;;
4642;SDS011;2334;48.710;9.622;2023-03-05T03:50:36;37.80;;;13.60;;
4642;SDS011;2334;48.710;9.622;2023-03-05T03:53:04;41.33;;;15.47;;
4642;SDS011;2334;48.710;9.622;2023-03-05T03:55:31;36.67;;;14.00;;
4642;SDS011;2334;48.710;9.622;2023-03-05T03:57:58;43.20;;;15.63;;
4642;SDS011;2334;48.710;9.622;2023-03-05T04:00:25;37.80;;;14.30;;
4642;SDS011;2334;48.710;9.622;2023-03-05T04:02:53;29.80;;;12.27;;
4642;SDS011;2334;48.710;9.622;2023-03-05T04:05:20;36.93;;;13.80;;
4642;SDS011;2334;48.710;9.622;2023-03-05T04:07:47;32.37;;;13.50;;
4642;SDS011;2334;48.710;9.622;2023-03-05T04:10:13;42.60;;;14.63;;
4642;SDS011;2334;48.710;9.622;2023-03-05T04:12:42;34.90;;;13.20;;
4642;SDS011;2334;48.710;9.622;2023-03-05T04:15:10;40.37;;;14.03;;
4642;SDS011;2334;48.710;9.622;2023-03-05T04:17:37;32.60;;;12.90;;
4642;SDS011;2334;48.710;9.622;2023-03-05T04:20:12;30.47;;;12.70;;
4642;SDS011;2334;48.710;9.622;2023-03-05T04:22:39;45.50;;;14.07;;
4642;SDS011;2334;48.710;9.622;2023-03-05T04:25:06;32.83;;;13.00;;
4642;SDS011;2334;48.710;9.622;2023-03-05T04:27:33;46.00;;;15.33;;
4642;SDS011;2334;48.710;9.622;2023-03-05T04:30:01;39.07;;;14.20;;
4642;SDS011;2334;48.710;9.622;2023-03-05T04:32:29;36.63;;;12.70;;
4642;SDS011;2334;48.710;9.622;2023-03-05T04:34:56;32.93;;;13.40;;
4642;SDS011;2334;48.710;9.622;2023-03-05T04:37:24;47.53;;;15.43;;
4642;SDS011;2334;48.710;9.622;2023-03-05T04:39:51;30.43;;;12.67;;
4642;SDS011;2334;48.710;9.622;2023-03-05T04:42:19;33.40;;;13.43;;
4642;SDS011;2334;48.710;9.622;2023-03-05T04:44:45;39.93;;;12.33;;
4642;SDS011;2334;48.710;9.622;2023-03-05T04:47:13;36.07;;;14.17;;
4642;SDS011;2334;48.710;9.622;2023-03-05T04:49:40;43.40;;;15.20;;
4642;SDS011;2334;48.710;9.622;2023-03-05T04:52:07;41.57;;;14.63;;
4642;SDS011;2334;48.710;9.622;2023-03-05T04:54:36;45.07;;;14.77;;
4642;SDS011;2334;48.710;9.622;2023-03-05T04:57:04;35.87;;;13.10;;
4642;SDS011;2334;48.710;9.622;2023-03-05T04:59:31;35.90;;;13.93;;
4642;SDS011;2334;48.710;9.622;2023-03-05T05:01:58;33.57;;;12.47;;
4642;SDS011;2334;48.710;9.622;2023-03-05T05:04:24;40.80;;;13.20;;
4642;SDS011;2334;48.710;9.622;2023-03-05T05:06:53;45.90;;;14.80;;
4642;SDS011;2334;48.710;9.622;2023-03-05T05:09:21;42.83;;;14.50;;
4642;SDS011;2334;48.710;9.622;2023-03-05T05:11:50;44.50;;;14.90;;
4642;SDS011;2334;48.710;9.622;2023-03-05T05:14:17;41.87;;;14.90;;
4642;SDS011;2334;48.710;9.622;2023-03-05T05:16:43;33.83;;;15.27;;
4642;SDS011;2334;48.710;9.622;2023-03-05T05:19:10;36.90;;;11.50;;
4642;SDS011;2334;48.710;9.622;2023-03-05T05:21:37;33.30;;;13.60;;
4642;SDS011;2334;48.710;9.622;2023-03-05T05:24:05;32.00;;;13.20;;
4642;SDS011;2334;48.710;9.622;2023-03-05T05:26:32;41.00;;;14.13;;
4642;SDS011;2334;48.710;9.622;2023-03-05T05:29:00;37.53;;;13.87;;
4642;SDS011;2334;48.710;9.622;2023-03-05T05:31:27;32.40;;;15.00;;
4642;SDS011;2334;48.710;9.622;2023-03-05T05:33:54;40.77;;;14.07;;
4642;SDS011;2334;48.710;9.622;2023-03-05T05:36:21;41.50;;;14.90;;
4642;SDS011;2334;48.710;9.622;2023-03-05T05:38:48;38.17;;;13.40;;
4642;SDS011;2334;48.710;9.622;2023-03-05T05:41:16;39.80;;;14.93;;
4642;SDS011;2334;48.710;9.622;2023-03-05T05:43:43;37.53;;;14.47;;
4642;SDS011;2334;48.710;9.622;2023-03-05T05:46:12;39.57;;;15.00;;
4642;SDS011;2334;48.710;9.622;2023-03-05T05:48:41;44.30;;;15.27;;
4642;SDS011;2334;48.710;9.622;2023-03-05T05:51:09;40.97;;;15.43;;
4642;SDS011;2334;48.710;9.622;2023-03-05T05:53:39;40.27;;;17.37;;
4642;SDS011;2334;48.710;9.622;2023-03-05T05:56:06;35.23;;;15.03;;
4642;SDS011;2334;48.710;9.622;2023-03-05T05:58:35;44.73;;;15.73;;
4642;SDS011;2334;48.710;9.622;2023-03-05T06:01:10;48.80;;;15.80;;
4642;SDS011;2334;48.710;9.622;2023-03-05T06:03:39;44.50;;;17.30;;
4642;SDS011;2334;48.710;9.622;2023-03-05T06:06:09;37.77;;;15.07;;
4642;SDS011;2334;48.710;9.622;2023-03-05T06:08:37;41.70;;;15.87;;
4642;SDS011;2334;48.710;9.622;2023-03-05T06:11:04;38.93;;;13.90;;
4642;SDS011;2334;48.710;9.622;2023-03-05T06:13:31;38.00;;;14.10;;
4642;SDS011;2334;48.710;9.622;2023-03-05T06:16:00;43.40;;;14.93;;
4642;SDS011;2334;48.710;9.622;2023-03-05T06:18:29;39.73;;;15.53;;
4642;SDS011;2334;48.710;9.622;2023-03-05T06:20:56;31.20;;;13.60;;
4642;SDS011;2334;48.710;9.622;2023-03-05T06:23:25;44.10;;;16.57;;
4642;SDS011;2334;48.710;9.622;2023-03-05T06:25:52;54.73;;;16.47;;
4642;SDS011;2334;48.710;9.622;2023-03-05T06:28:19;42.27;;;14.80;;
4642;SDS011;2334;48.710;9.622;2023-03-05T06:30:46;40.80;;;15.37;;
4642;SDS011;2334;48.710;9.622;2023-03-05T06:33:13;38.70;;;15.70;;
4642;SDS011;2334;48.710;9.622;2023-03-05T06:35:44;40.37;;;13.63;;
4642;SDS011;2334;48.710;9.622;2023-03-05T06:38:11;42.67;;;15.70;;
4642;SDS011;2334;48.710;9.622;2023-03-05T06:40:38;31.50;;;13.80;;
4642;SDS011;2334;48.710;9.622;2023-03-05T06:43:04;45.73;;;16.20;;
4642;SDS011;2334;48.710;9.622;2023-03-05T06:45:31;45.90;;;19.53;;
4642;SDS011;2334;48.710;9.622;2023-03-05T06:47:58;47.17;;;17.43;;
4642;SDS011;2334;48.710;9.622;2023-03-05T06:50:25;40.77;;;17.97;;
4642;SDS011;2334;48.710;9.622;2023-03-05T06:52:54;42.13;;;15.70;;
4642;SDS011;2334;48.710;9.622;2023-03-05T06:55:20;40.00;;;14.20;;
4642;SDS011;2334;48.710;9.622;2023-03-05T06:57:47;39.47;;;14.40;;
4642;SDS011;2334;48.710;9.622;2023-03-05T07:00:14;40.07;;;15.40;;
4642;SDS011;2334;48.710;9.622;2023-03-05T07:02:42;37.50;;;14.53;;
4642;SDS011;2334;48.710;9.622;2023-03-05T07:05:09;39.77;;;14.40;;
4642;SDS011;2334;48.710;9.622;2023-03-05T07:07:36;29.93;;;13.30;;
4642;SDS011;2334;48.710;9.622;2023-03-05T07:10:05;41.90;;;14.60;;
4642;SDS011;2334;48.710;9.622;2023-03-05T07:12:33;43.17;;;14.90;;
4642;SDS011;2334;48.710;9.622;2023-03-05T07:15:00;40.00;;;16.47;;
4642;SDS011;2334;48.710;9.622;2023-03-05T07:17:27;43.33;;;14.17;;
4642;SDS011;2334;48.710;9.622;2023-03-05T07:19:54;37.80;;;14.67;;
4642;SDS011;2334;48.710;9.622;2023-03-05T07:22:21;48.23;;;16.00;;
4642;SDS011;2334;48.710;9.622;2023-03-05T07:24:48;52.07;;;16.83;;
4642;SDS011;2334;48.710;9.622;2023-03-05T07:27:16;39.63;;;13.80;;
4642;SDS011;2334;48.710;9.622;2023-03-05T07:29:43;36.63;;;14.07;;
4642;SDS011;2334;48.710;9.622;2023-03-05T07:32:10;43.83;;;16.00;;
4642;SDS011;2334;48.710;9.622;2023-03-05T07:34:37;37.77;;;14.73;;
4642;SDS011;2334;48.710;9.622;2023-03-05T07:37:04;37.53;;;15.00;;
4642;SDS011;2334;48.710;9.622;2023-03-05T07:39:31;43.00;;;15.80;;
4642;SDS011;2334;48.710;9.622;2023-03-05T07:41:58;52.27;;;15.87;;
4642;SDS011;2334;48.710;9.622;2023-03-05T07:44:26;35.60;;;15.10;;
4642;SDS011;2334;48.710;9.622;2023-03-05T07:46:53;42.27;;;13.97;;
4642;SDS011;2334;48.710;9.622;2023-03-05T07:49:20;36.43;;;13.37;;
4642;SDS011;2334;48.710;9.622;2023-03-05T07:51:47;41.57;;;16.03;;
4642;SDS011;2334;48.710;9.622;2023-03-05T07:54:14;36.27;;;15.90;;
4642;SDS011;2334;48.710;9.622;2023-03-05T07:56:41;51.03;;;14.80;;
4642;SDS011;2334;48.710;9.622;2023-03-05T07:59:10;39.43;;;13.53;;
4642;SDS011;2334;48.710;9.622;2023-03-05T08:01:39;46.17;;;15.23;;
4642;SDS011;2334;48.710;9.622;2023-03-05T08:04:06;45.80;;;17.03;;
4642;SDS011;2334;48.710;9.622;2023-03-05T08:06:37;41.17;;;16.03;;
4642;SDS011;2334;48.710;9.622;2023-03-05T08:09:05;41.93;;;15.10;;
4642;SDS011;2334;48.710;9.622;2023-03-05T08:11:32;32.50;;;14.47;;
4642;SDS011;2334;48.710;9.622;2023-03-05T08:13:59;41.90;;;14.73;;
4642;SDS011;2334;48.710;9.622;2023-03-05T08:16:26;50.40;;;18.60;;
4642;SDS011;2334;48.710;9.622;2023-03-05T08:18:55;49.87;;;17.60;;
4642;SDS011;2334;48.710;9.622;2023-03-05T08:21:23;58.10;;;21.13;;
4642;SDS011;2334;48.710;9.622;2023-03-05T08:23:53;47.93;;;17.90;;
4642;SDS011;2334;48.710;9.622;2023-03-05T08:26:21;40.23;;;16.80;;
4642;SDS011;2334;48.710;9.622;2023-03-05T08:28:50;50.17;;;18.70;;
4642;SDS011;2334;48.710;9.622;2023-03-05T08:31:17;54.73;;;20.90;;
4642;SDS011;2334;48.710;9.622;2023-03-05T08:33:46;37.30;;;14.50;;
4642;SDS011;2334;48.710;9.622;2023-03-05T08:36:15;30.03;;;14.13;;
4642;SDS011;2334;48.710;9.622;2023-03-05T08:38:42;42.37;;;15.83;;
4642;SDS011;2334;48.710;9.622;2023-03-05T08:41:10;51.43;;;18.50;;
4642;SDS011;2334;48.710;9.622;2023-03-05T08:43:38;45.80;;;16.40;;
4642;SDS011;2334;48.710;9.622;2023-03-05T08:46:05;51.03;;;20.13;;
4642;SDS011;2334;48.710;9.622;2023-03-05T08:48:32;53.03;;;20.47;;
4642;SDS011;2334;48.710;9.622;2023-03-05T08:51:03;48.83;;;15.67;;
4642;SDS011;2334;48.710;9.622;2023-03-05T08:53:32;45.80;;;16.40;;
4642;SDS011;2334;48.710;9.622;2023-03-05T08:55:59;40.87;;;15.90;;
4642;SDS011;2334;48.710;9.622;2023-03-05T08:58:26;36.23;;;14.30;;
4642;SDS011;2334;48.710;9.622;2023-03-05T09:00:53;41.73;;;15.83;;
4642;SDS011;2334;48.710;9.622;2023-03-05T09:03:20;48.73;;;18.87;;
4642;SDS011;2334;48.710;9.622;2023-03-05T09:05:47;44.90;;;18.53;;
4642;SDS011;2334;48.710;9.622;2023-03-05T09:08:15;53.07;;;15.03;;
4642;SDS011;2334;48.710;9.622;2023-03-05T09:10:44;47.00;;;16.63;;
4642;SDS011;2334;48.710;9.622;2023-03-05T09:13:12;52.30;;;22.47;;
4642;SDS011;2334;48.710;9.622;2023-03-05T09:15:39;54.90;;;17.27;;
4642;SDS011;2334;48.710;9.622;2023-03-05T09:18:06;27.53;;;12.80;;
4642;SDS011;2334;48.710;9.622;2023-03-05T09:20:33;39.17;;;13.70;;
4642;SDS011;2334;48.710;9.622;2023-03-05T09:23:00;42.77;;;15.60;;
4642;SDS011;2334;48.710;9.622;2023-03-05T09:25:27;35.90;;;14.07;;
4642;SDS011;2334;48.710;9.622;2023-03-05T09:27:56;39.13;;;15.03;;
4642;SDS011;2334;48.710;9.622;2023-03-05T09:30:23;30.33;;;13.00;;
4642;SDS011;2334;48.710;9.622;2023-03-05T09:32:50;34.90;;;13.17;;
4642;SDS011;2334;48.710;9.622;2023-03-05T09:35:16;31.93;;;12.77;;
4642;SDS011;2334;48.710;9.622;2023-03-05T09:37:43;35.53;;;13.87;;
4642;SDS011;2334;48.710;9.622;2023-03-05T09:40:12;33.33;;;12.60;;
4642;SDS011;2334;48.710;9.622;2023-03-05T09:42:49;38.73;;;17.37;;
4642;SDS011;2334;48.710;9.622;2023-03-05T09:45:27;36.17;;;14.67;;
4642;SDS011;2334;48.710;9.622;2023-03-05T09:48:00;37.13;;;13.70;;
4642;SDS011;2334;48.710;9.622;2023-03-05T09:50:37;30.57;;;11.70;;
4642;SDS011;2334;48.710;9.622;2023-03-05T09:53:11;29.07;;;11.93;;
4642;SDS011;2334;48.710;9.622;2023-03-05T09:55:44;33.60;;;12.03;;
4642;SDS011;2334;48.710;9.622;2023-03-05T09:58:16;32.03;;;13.63;;
4642;SDS011;2334;48.710;9.622;2023-03-05T10:00:48;43.50;;;14.30;;
4642;SDS011;2334;48.710;9.622;2023-03-05T10:03:21;34.73;;;13.47;;
4642;SDS011;2334;48.710;9.622;2023-03-05T10:05:57;33.17;;;11.93;;
4642;SDS011;2334;48.710;9.622;2023-03-05T10:08:28;38.10;;;14.20;;
4642;SDS011;2334;48.710;9.622;2023-03-05T10:11:01;31.73;;;12.00;;
4642;SDS011;2334;48.710;9.622;2023-03-05T10:13:39;30.63;;;12.20;;
4642;SDS011;2334;48.710;9.622;2023-03-05T10:16:17;32.43;;;13.07;;
4642;SDS011;2334;48.710;9.622;2023-03-05T10:19:00;30.23;;;11.73;;
4642;SDS011;2334;48.710;9.622;2023-03-05T10:21:33;37.13;;;12.80;;
4642;SDS011;2334;48.710;9.622;2023-03-05T10:24:08;35.03;;;11.90;;
4642;SDS011;2334;48.710;9.622;2023-03-05T10:26:51;35.80;;;11.97;;
4642;SDS011;2334;48.710;9.622;2023-03-05T10:29:37;32.67;;;12.17;;
4642;SDS011;2334;48.710;9.622;2023-03-05T10:32:14;31.23;;;12.80;;
4642;SDS011;2334;48.710;9.622;2023-03-05T10:38:15;25.37;;;11.43;;
4642;SDS011;2334;48.710;9.622;2023-03-05T10:40:55;30.03;;;11.80;;
4642;SDS011;2334;48.710;9.622;2023-03-05T10:43:27;31.77;;;11.67;;
4642;SDS011;2334;48.710;9.622;2023-03-05T10:46:04;31.47;;;12.90;;
4642;SDS011;2334;48.710;9.622;2023-03-05T10:48:37;30.50;;;11.90;;
4642;SDS011;2334;48.710;9.622;2023-03-05T10:51:11;27.00;;;10.80;;
4642;SDS011;2334;48.710;9.622;2023-03-05T10:53:44;35.03;;;13.10;;
4642;SDS011;2334;48.710;9.622;2023-03-05T10:56:17;27.03;;;10.83;;
4642;SDS011;2334;48.710;9.622;2023-03-05T10:58:46;28.80;;;10.20;;
4642;SDS011;2334;48.710;9.622;2023-03-05T11:01:21;36.70;;;11.23;;
4642;SDS011;2334;48.710;9.622;2023-03-05T11:03:52;37.37;;;11.83;;
4642;SDS011;2334;48.710;9.622;2023-03-05T11:06:28;28.47;;;10.70;;
4642;SDS011;2334;48.710;9.622;2023-03-05T11:12:10;23.40;;;9.60;;
4642;SDS011;2334;48.710;9.622;2023-03-05T11:14:40;28.20;;;10.33;;
4642;SDS011;2334;48.710;9.622;2023-03-05T11:17:26;25.77;;;9.50;;
4642;SDS011;2334;48.710;9.622;2023-03-05T11:19:56;27.63;;;9.30;;
4642;SDS011;2334;48.710;9.622;2023-03-05T11:22:52;22.33;;;8.50;;
4642;SDS011;2334;48.710;9.622;2023-03-05T11:25:28;19.00;;;8.50;;
4642;SDS011;2334;48.710;9.622;2023-03-05T11:27:56;28.30;;;9.70;;
4642;SDS011;2334;48.710;9.622;2023-03-05T11:30:26;25.27;;;9.67;;
4642;SDS011;2334;48.710;9.622;2023-03-05T11:33:06;93.57;;;35.40;;
4642;SDS011;2334;48.710;9.622;2023-03-05T11:35:35;32.83;;;15.57;;
4642;SDS011;2334;48.710;9.622;2023-03-05T11:38:05;26.10;;;11.30;;
4642;SDS011;2334;48.710;9.622;2023-03-05T11:40:40;44.90;;;21.20;;
4642;SDS011;2334;48.710;9.622;2023-03-05T11:43:08;32.47;;;13.13;;
4642;SDS011;2334;48.710;9.622;2023-03-05T11:45:39;22.13;;;10.83;;
4642;SDS011;2334;48.710;9.622;2023-03-05T11:48:08;30.70;;;11.70;;
4642;SDS011;2334;48.710;9.622;2023-03-05T11:50:41;28.43;;;13.57;;
4642;SDS011;2334;48.710;9.622;2023-03-05T11:53:12;30.50;;;11.53;;
4642;SDS011;2334;48.710;9.622;2023-03-05T11:55:44;25.30;;;11.77;;
4642;SDS011;2334;48.710;9.622;2023-03-05T11:58:20;29.03;;;9.63;;
4642;SDS011;2334;48.710;9.622;2023-03-05T12:00:52;25.40;;;10.30;;
4642;SDS011;2334;48.710;9.622;2023-03-05T12:03:20;19.73;;;10.23;;
4642;SDS011;2334;48.710;9.622;2023-03-05T12:05:51;18.23;;;8.63;;
4642;SDS011;2334;48.710;9.622;2023-03-05T12:08:23;24.23;;;9.80;;
4642;SDS011;2334;48.710;9.622;2023-03-05T12:10:54;29.47;;;9.33;;
4642;SDS011;2334;48.710;9.622;2023-03-05T12:13:34;23.13;;;9.20;;
4642;SDS011;2334;48.710;9.622;2023-03-05T12:16:08;26.03;;;9.20;;
4642;SDS011;2334;48.710;9.622;2023-03-05T12:18:53;30.33;;;10.53;;
4642;SDS011;2334;48.710;9.622;2023-03-05T12:21:30;23.63;;;10.40;;
4642;SDS011;2334;48.710;9.622;2023-03-05T12:24:02;23.50;;;9.50;;
4642;SDS011;2334;48.710;9.622;2023-03-05T12:27:09;22.43;;;8.93;;
4642;SDS011;2334;48.710;9.622;2023-03-05T12:29:41;22.40;;;9.13;;
4642;SDS011;2334;48.710;9.622;2023-03-05T12:35:28;23.67;;;9.90;;
4642;SDS011;2334;48.710;9.622;2023-03-05T12:44:13;24.87;;;9.27;;
4642;SDS011;2334;48.710;9.622;2023-03-05T12:49:47;21.07;;;8.50;;
4642;SDS011;2334;48.710;9.622;2023-03-05T12:52:25;26.33;;;11.33;;
4642;SDS011;2334;48.710;9.622;2023-03-05T12:55:06;23.13;;;9.40;;
4642;SDS011;2334;48.710;9.622;2023-03-05T12:57:44;24.93;;;9.93;;
4642;SDS011;2334;48.710;9.622;2023-03-05T13:00:17;26.40;;;9.80;;
4642;SDS011;2334;48.710;9.622;2023-03-05T13:02:51;30.07;;;10.60;;
4642;SDS011;2334;48.710;9.622;2023-03-05T13:05:22;23.90;;;11.10;;
4642;SDS011;2334;48.710;9.622;2023-03-05T13:08:03;27.17;;;11.13;;
4642;SDS011;2334;48.710;9.622;2023-03-05T13:10:36;27.33;;;10.50;;
4642;SDS011;2334;48.710;9.622;2023-03-05T13:13:03;20.40;;;9.27;;
4642;SDS011;2334;48.710;9.622;2023-03-05T13:15:31;19.80;;;9.83;;
4642;SDS011;2334;48.710;9.622;2023-03-05T13:17:59;28.87;;;10.10;;
4642;SDS011;2334;48.710;9.622;2023-03-05T13:20:33;22.90;;;11.27;;
4642;SDS011;2334;48.710;9.622;2023-03-05T13:25:55;21.10;;;10.70;;
4642;SDS011;2334;48.710;9.622;2023-03-05T13:28:27;20.97;;;8.77;;
4642;SDS011;2334;48.710;9.622;2023-03-05T13:30:57;26.40;;;9.63;;
4642;SDS011;2334;48.710;9.622;2023-03-05T13:33:27;24.37;;;10.10;;
4642;SDS011;2334;48.710;9.622;2023-03-05T13:35:55;13.40;;;7.97;;
4642;SDS011;2334;48.710;9.622;2023-03-05T13:38:24;18.90;;;10.33;;
4642;SDS011;2334;48.710;9.622;2023-03-05T13:41:00;28.80;;;10.10;;
4642;SDS011;2334;48.710;9.622;2023-03-05T13:43:43;21.53;;;9.90;;
4642;SDS011;2334;48.710;9.622;2023-03-05T13:46:13;19.03;;;9.00;;
4642;SDS011;2334;48.710;9.622;2023-03-05T13:48:48;15.87;;;7.57;;
4642;SDS011;2334;48.710;9.622;2023-03-05T13:51:15;20.60;;;9.23;;
4642;SDS011;2334;48.710;9.622;2023-03-05T13:53:42;20.83;;;9.30;;
4642;SDS011;2334;48.710;9.622;2023-03-05T13:56:16;30.93;;;13.53;;
4642;SDS011;2334;48.710;9.622;2023-03-05T13:58:45;27.83;;;11.40;;
4642;SDS011;2334;48.710;9.622;2023-03-05T14:01:19;26.77;;;11.10;;
4642;SDS011;2334;48.710;9.622;2023-03-05T14:03:51;34.03;;;11.40;;
4642;SDS011;2334;48.710;9.622;2023-03-05T14:06:20;27.47;;;11.90;;
4642;SDS011;2334;48.710;9.622;2023-03-05T14:08:50;26.17;;;10.23;;
4642;SDS011;2334;48.710;9.622;2023-03-05T14:11:17;26.70;;;12.40;;
4642;SDS011;2334;48.710;9.622;2023-03-05T14:13:45;27.20;;;11.20;;
4642;SDS011;2334;48.710;9.622;2023-03-05T14:16:13;20.57;;;8.93;;
4642;SDS011;2334;48.710;9.622;2023-03-05T14:18:53;20.20;;;8.70;;
4642;SDS011;2334;48.710;9.622;2023-03-05T14:21:21;26.63;;;9.30;;
4642;SDS011;2334;48.710;9.622;2023-03-05T14:23:49;27.33;;;11.70;;
4642;SDS011;2334;48.710;9.622;2023-03-05T14:26:29;18.47;;;9.33;;
4642;SDS011;2334;48.710;9.622;2023-03-05T14:28:58;22.63;;;10.80;;
4642;SDS011;2334;48.710;9.622;2023-03-05T14:31:27;23.80;;;9.17;;
4642;SDS011;2334;48.710;9.622;2023-03-05T14:34:00;29.33;;;10.57;;
4642;SDS011;2334;48.710;9.622;2023-03-05T14:36:30;21.53;;;9.20;;
4642;SDS011;2334;48.710;9.622;2023-03-05T14:38:58;25.70;;;9.60;;
4642;SDS011;2334;48.710;9.622;2023-03-05T14:41:33;27.93;;;10.47;;
4642;SDS011;2334;48.710;9.622;2023-03-05T14:44:07;24.67;;;8.60;;
4642;SDS011;2334;48.710;9.622;2023-03-05T14:46:37;16.97;;;8.90;;
4642;SDS011;2334;48.710;9.622;2023-03-05T14:49:06;21.47;;;9.13;;
4642;SDS011;2334;48.710;9.622;2023-03-05T14:51:38;30.53;;;9.37;;
4642;SDS011;2334;48.710;9.622;2023-03-05T14:54:16;24.00;;;9.17;;
4642;SDS011;2334;48.710;9.622;2023-03-05T14:56:44;24.57;;;9.57;;
4642;SDS011;2334;48.710;9.622;2023-03-05T14:59:12;25.00;;;9.30;;
4642;SDS011;2334;48.710;9.622;2023-03-05T15:01:39;31.83;;;10.50;;
4642;SDS011;2334;48.710;9.622;2023-03-05T15:04:07;21.23;;;9.03;;
4642;SDS011;2334;48.710;9.622;2023-03-05T15:06:34;21.30;;;9.40;;
4642;SDS011;2334;48.710;9.622;2023-03-05T15:09:05;17.13;;;7.87;;
4642;SDS011;2334;48.710;9.622;2023-03-05T15:11:33;16.87;;;8.50;;
4642;SDS011;2334;48.710;9.622;2023-03-05T15:14:00;15.57;;;7.80;;
4642;SDS011;2334;48.710;9.622;2023-03-05T15:16:27;21.87;;;8.23;;
4642;SDS011;2334;48.710;9.622;2023-03-05T15:18:54;19.00;;;8.60;;
4642;SDS011;2334;48.710;9.622;2023-03-05T15:21:22;27.93;;;10.20;;
4642;SDS011;2334;48.710;9.622;2023-03-05T15:23:49;22.70;;;8.60;;
4642;SDS011;2334;48.710;9.622;2023-03-05T15:26:16;25.60;;;10.40;;